createdAt,value
2018-04-08T00:02:56.951Z,16.43
2018-04-08T00:06:00.331Z,16.83
2018-04-08T00:09:03.684Z,15.77
2018-04-08T00:12:07.046Z,15.83
2018-04-08T00:15:11.898Z,17.30
2018-04-08T00:18:16.129Z,17.67
2018-04-08T00:21:20.484Z,17.87
2018-04-08T00:24:23.843Z,16.47
2018-04-08T00:27:28.091Z,19.97
2018-04-08T00:30:31.446Z,18.53
2018-04-08T00:33:34.797Z,17.53
2018-04-08T00:36:38.157Z,19.33
2018-04-08T00:39:42.355Z,18.67
2018-04-08T00:42:45.809Z,17.73
2018-04-08T00:45:49.181Z,17.20
2018-04-08T00:48:53.305Z,17.37
2018-04-08T00:51:57.485Z,17.43
2018-04-08T00:55:00.860Z,17.63
2018-04-08T00:58:04.235Z,18.47
2018-04-08T01:01:07.757Z,17.73
2018-04-08T01:04:11.115Z,19.47
2018-04-08T01:07:15.246Z,20.03
2018-04-08T01:10:18.606Z,20.07
2018-04-08T01:13:21.966Z,20.17
2018-04-08T01:16:26.018Z,17.07
2018-04-08T01:19:30.875Z,17.50
2018-04-08T01:22:35.006Z,21.20
2018-04-08T01:25:38.368Z,19.80
2018-04-08T01:28:43.228Z,20.30
2018-04-08T01:31:47.377Z,19.90
2018-04-08T01:34:50.721Z,20.13
2018-04-08T01:37:54.089Z,19.03
2018-04-08T01:40:57.442Z,21.63
2018-04-08T01:44:01.591Z,19.00
2018-04-08T01:47:04.949Z,21.10
2018-04-08T01:50:08.365Z,20.83
2018-04-08T01:53:12.486Z,20.87
2018-04-08T01:56:15.836Z,21.67
2018-04-08T01:59:19.220Z,20.27
2018-04-08T02:02:22.574Z,20.17
2018-04-08T02:05:26.699Z,20.23
2018-04-08T02:08:30.054Z,20.43
2018-04-08T02:11:34.201Z,20.67
2018-04-08T02:14:38.313Z,21.50
2018-04-08T02:17:41.775Z,21.00
2018-04-08T02:20:45.149Z,20.83
2018-04-08T02:23:48.739Z,19.07
2018-04-08T02:26:52.096Z,18.23
2018-04-08T02:29:55.458Z,18.83
2018-04-08T02:32:58.829Z,21.13
2018-04-08T02:36:03.005Z,19.40
2018-04-08T02:39:06.382Z,18.67
2018-04-08T02:42:09.761Z,19.93
2018-04-08T02:45:13.225Z,18.73
2018-04-08T02:48:16.578Z,18.33
2018-04-08T02:51:19.944Z,17.80
2018-04-08T02:54:24.079Z,18.30
2018-04-08T02:57:27.405Z,18.00
2018-04-08T03:00:30.841Z,17.43
2018-04-08T03:03:34.203Z,16.67
2018-04-08T03:06:37.578Z,17.30
2018-04-08T03:09:40.936Z,17.13
2018-04-08T03:12:45.070Z,18.07
2018-04-08T03:15:49.195Z,16.80
2018-04-08T03:18:52.657Z,20.73
2018-04-08T03:21:56.947Z,17.13
2018-04-08T03:25:00.317Z,17.23
2018-04-08T03:28:03.731Z,17.33
2018-04-08T03:31:07.082Z,17.40
2018-04-08T03:34:10.488Z,16.63
2018-04-08T03:37:13.837Z,17.40
2018-04-08T03:40:17.192Z,17.03
2018-04-08T03:43:20.547Z,15.73
2018-04-08T03:46:24.017Z,17.23
2018-04-08T03:49:27.356Z,17.67
2018-04-08T03:52:30.762Z,16.83
2018-04-08T03:55:34.108Z,15.90
2018-04-08T03:58:38.261Z,17.23
2018-04-08T04:01:41.735Z,16.70
2018-04-08T04:04:45.301Z,16.53
2018-04-08T04:07:48.647Z,16.10
2018-04-08T04:10:51.997Z,17.03
2018-04-08T04:13:56.118Z,17.83
2018-04-08T04:16:59.494Z,17.23
2018-04-08T04:20:20.830Z,16.77
2018-04-08T04:23:42.078Z,16.90
2018-04-08T04:26:46.203Z,17.03
2018-04-08T04:29:49.595Z,19.07
2018-04-08T04:32:53.711Z,21.80
2018-04-08T04:35:57.909Z,22.03
2018-04-08T04:39:01.275Z,21.10
2018-04-08T04:42:04.656Z,20.33
2018-04-08T04:45:08.022Z,20.43
2018-04-08T04:48:12.144Z,21.43
2018-04-08T04:51:16.305Z,20.30
2018-04-08T04:54:19.635Z,21.20
2018-04-08T04:57:23.107Z,21.90
2018-04-08T05:00:26.580Z,21.37
2018-04-08T05:03:29.955Z,21.47
2018-04-08T05:06:34.077Z,20.53
2018-04-08T05:09:38.273Z,19.37
2018-04-08T05:12:41.638Z,17.93
2018-04-08T05:15:44.999Z,17.87
2018-04-08T05:18:49.126Z,16.83
2018-04-08T05:21:52.552Z,16.97
2018-04-08T05:24:55.906Z,16.40
2018-04-08T05:28:00.028Z,17.17
2018-04-08T05:31:04.154Z,16.73
2018-04-08T05:34:07.505Z,17.67
2018-04-08T05:37:10.868Z,17.90
2018-04-08T05:40:14.235Z,20.63
2018-04-08T05:43:18.362Z,20.27
2018-04-08T05:46:21.764Z,19.00
2018-04-08T05:49:25.300Z,20.87
2018-04-08T05:52:28.655Z,19.70
2018-04-08T05:55:32.800Z,17.07
2018-04-08T05:58:36.149Z,19.00
2018-04-08T06:01:39.597Z,16.27
2018-04-08T06:04:43.062Z,16.83
2018-04-08T06:07:47.233Z,15.60
2018-04-08T06:10:50.598Z,16.33
2018-04-08T06:13:54.817Z,15.77
2018-04-08T06:16:58.941Z,14.60
2018-04-08T06:20:02.288Z,15.93
2018-04-08T06:23:05.646Z,16.30
2018-04-08T06:26:09.018Z,15.80
2018-04-08T06:29:13.135Z,17.20
2018-04-08T06:32:17.264Z,16.90
2018-04-08T06:35:21.389Z,18.10
2018-04-08T06:38:24.757Z,18.53
2018-04-08T06:41:28.119Z,17.43
2018-04-08T06:44:31.490Z,17.23
2018-04-08T06:47:34.851Z,17.23
2018-04-08T06:50:38.202Z,16.13
2018-04-08T06:53:41.580Z,16.03
2018-04-08T06:56:44.934Z,15.60
2018-04-08T06:59:49.101Z,15.50
2018-04-08T07:02:52.465Z,16.70
2018-04-08T07:05:55.812Z,17.03
2018-04-08T07:08:59.195Z,15.57
2018-04-08T07:12:02.586Z,16.70
2018-04-08T07:15:05.958Z,16.20
2018-04-08T07:18:09.358Z,16.40
2018-04-08T07:21:12.730Z,15.80
2018-04-08T07:24:16.092Z,16.33
2018-04-08T07:27:19.460Z,14.87
2018-04-08T07:30:22.892Z,16.43
2018-04-08T07:33:26.405Z,16.57
2018-04-08T07:36:29.789Z,15.33
2018-04-08T07:39:33.166Z,16.53
2018-04-08T07:42:36.539Z,15.87
2018-04-08T07:45:39.995Z,15.47
2018-04-08T07:48:43.354Z,15.13
2018-04-08T07:51:46.734Z,15.37
2018-04-08T07:54:50.091Z,13.97
2018-04-08T07:57:53.449Z,15.73
2018-04-08T08:00:56.884Z,13.70
2018-04-08T08:04:00.244Z,13.43
2018-04-08T08:07:03.621Z,11.63
2018-04-08T08:10:06.984Z,12.70
2018-04-08T08:13:10.359Z,12.07
2018-04-08T08:16:14.597Z,11.30
2018-04-08T08:19:18.760Z,13.57
2018-04-08T08:22:22.190Z,13.50
2018-04-08T08:25:25.579Z,12.67
2018-04-08T08:28:28.966Z,12.10
2018-04-08T08:31:32.363Z,11.97
2018-04-08T08:34:35.837Z,12.77
2018-04-08T08:37:39.215Z,13.33
2018-04-08T08:40:43.347Z,13.00
2018-04-08T08:43:46.704Z,14.03
2018-04-08T08:46:50.083Z,14.47
2018-04-08T08:49:53.556Z,13.87
2018-04-08T08:52:56.931Z,14.53
2018-04-08T08:56:01.084Z,14.70
2018-04-08T08:59:04.523Z,15.40
2018-04-08T09:02:07.962Z,14.23
2018-04-08T09:05:11.337Z,14.90
2018-04-08T09:08:15.468Z,15.57
2018-04-08T09:11:18.948Z,16.93
2018-04-08T09:14:22.398Z,16.13
2018-04-08T09:17:25.781Z,15.50
2018-04-08T09:20:31.035Z,16.63
2018-04-08T09:23:46.138Z,15.73
2018-04-08T09:26:49.527Z,15.63
2018-04-08T09:29:52.940Z,15.57
2018-04-08T09:32:56.323Z,15.80
2018-04-08T09:35:59.690Z,17.13
2018-04-08T09:39:03.078Z,16.47
2018-04-08T09:42:07.214Z,16.67
2018-04-08T09:45:10.765Z,16.53
2018-04-08T09:48:14.157Z,17.87
2018-04-08T09:51:17.570Z,17.47
2018-04-08T09:54:20.952Z,16.50
2018-04-08T09:57:24.313Z,16.57
2018-04-08T10:00:34.037Z,17.37
2018-04-08T10:03:46.560Z,16.23
2018-04-08T10:06:50.691Z,16.53
2018-04-08T10:09:54.205Z,17.13
2018-04-08T10:12:57.770Z,16.93
2018-04-08T10:16:01.899Z,16.40
2018-04-08T10:19:06.034Z,17.03
2018-04-08T10:22:09.421Z,17.17
2018-04-08T10:25:12.805Z,17.70
2018-04-08T10:28:17.009Z,17.23
2018-04-08T10:31:20.366Z,18.60
2018-04-08T10:34:23.737Z,17.47
2018-04-08T10:37:27.121Z,17.47
2018-04-08T10:40:31.283Z,16.70
2018-04-08T10:43:34.662Z,18.07
2018-04-08T10:46:38.098Z,17.40
2018-04-08T10:49:41.464Z,18.07
2018-04-08T10:52:44.881Z,17.37
2018-04-08T10:55:48.245Z,17.27
2018-04-08T10:58:52.378Z,18.37
2018-04-08T11:01:55.782Z,17.67
2018-04-08T11:04:59.194Z,18.00
2018-04-08T11:08:03.360Z,18.47
2018-04-08T11:11:06.758Z,18.40
2018-04-08T11:14:10.129Z,16.97
2018-04-08T11:17:13.524Z,17.43
2018-04-08T11:20:16.894Z,17.53
2018-04-08T11:23:20.333Z,17.63
2018-04-08T11:26:23.705Z,18.80
2018-04-08T11:29:27.102Z,19.07
2018-04-08T11:32:30.482Z,19.10
2018-04-08T11:35:34.715Z,18.87
2018-04-08T11:38:38.097Z,19.23
2018-04-08T11:41:42.394Z,20.07
2018-04-08T11:44:45.798Z,20.17
2018-04-08T11:47:49.165Z,21.33
2018-04-08T11:50:52.533Z,21.90
2018-04-08T11:53:56.042Z,20.47
2018-04-08T11:56:59.462Z,21.90
2018-04-08T12:00:02.835Z,21.50
2018-04-08T12:03:06.207Z,21.60
2018-04-08T12:06:10.351Z,22.07
2018-04-08T12:09:13.778Z,22.67
2018-04-08T12:12:17.223Z,21.27
2018-04-08T12:15:21.476Z,21.87
2018-04-08T12:18:24.850Z,23.30
2018-04-08T12:21:28.993Z,21.27
2018-04-08T12:24:32.375Z,22.60
2018-04-08T12:27:36.520Z,23.87
2018-04-08T12:30:39.897Z,21.50
2018-04-08T12:33:43.315Z,23.23
2018-04-08T12:36:46.761Z,24.13
2018-04-08T12:39:50.134Z,23.63
2018-04-08T12:42:53.598Z,23.70
2018-04-08T12:45:57.728Z,24.10
2018-04-08T12:49:01.090Z,24.37
2018-04-08T12:52:04.502Z,24.57
2018-04-08T12:55:08.643Z,26.23
2018-04-08T12:58:12.005Z,25.33
2018-04-08T13:01:15.558Z,25.50
2018-04-08T13:04:19.062Z,25.17
2018-04-08T13:07:22.466Z,25.83
2018-04-08T13:10:25.872Z,26.20
2018-04-08T13:13:29.217Z,25.03
2018-04-08T13:16:33.368Z,26.87
2018-04-08T13:19:36.723Z,25.97
2018-04-08T13:22:41.605Z,25.53
2018-04-08T13:25:45.874Z,25.00
2018-04-08T13:28:50.027Z,25.13
2018-04-08T13:31:53.408Z,25.50
2018-04-08T13:34:57.541Z,23.70
2018-04-08T13:38:00.914Z,21.80
2018-04-08T13:41:04.289Z,22.13
2018-04-08T13:44:07.746Z,22.87
2018-04-08T13:47:11.131Z,23.47
2018-04-08T13:50:15.294Z,23.97
2018-04-08T13:53:18.686Z,23.40
2018-04-08T13:56:22.133Z,22.23
2018-04-08T13:59:26.280Z,22.57
2018-04-08T14:02:29.741Z,22.67
2018-04-08T14:05:33.144Z,22.70
2018-04-08T14:08:36.597Z,22.47
2018-04-08T14:11:39.981Z,23.83
2018-04-08T14:14:43.376Z,22.27
2018-04-08T14:17:47.514Z,22.90
2018-04-08T14:20:51.012Z,21.47
2018-04-08T14:23:54.379Z,22.13
2018-04-08T14:26:58.512Z,21.13
2018-04-08T14:30:02.756Z,21.97
2018-04-08T14:33:06.146Z,21.73
2018-04-08T14:36:09.554Z,20.63
2018-04-08T14:39:12.952Z,21.70
2018-04-08T14:42:16.423Z,21.70
2018-04-08T14:45:20.536Z,22.83
2018-04-08T14:48:24.675Z,22.33
2018-04-08T14:51:28.051Z,22.30
2018-04-08T14:54:32.208Z,22.83
2018-04-08T14:57:35.699Z,23.00
2018-04-08T15:00:39.388Z,24.83
2018-04-08T15:03:43.742Z,22.73
2018-04-08T15:06:47.154Z,22.73
2018-04-08T15:09:50.517Z,23.50
2018-04-08T15:12:53.883Z,21.43
2018-04-08T15:15:57.271Z,22.80
2018-04-08T15:19:00.738Z,22.30
2018-04-08T15:22:04.123Z,23.33
2018-04-08T15:25:07.499Z,21.93
2018-04-08T15:28:11.675Z,22.07
2018-04-08T15:31:15.071Z,21.67
2018-04-08T15:34:18.456Z,22.97
2018-04-08T15:37:21.833Z,22.60
2018-04-08T15:40:25.236Z,22.33
2018-04-08T15:43:29.352Z,22.33
2018-04-08T15:46:32.737Z,21.47
2018-04-08T15:49:36.871Z,21.17
2018-04-08T15:52:40.276Z,22.53
2018-04-08T15:55:44.119Z,22.27
2018-04-08T15:58:47.611Z,22.30
2018-04-08T16:01:50.984Z,23.20
2018-04-08T16:04:54.367Z,22.37
2018-04-08T16:07:58.548Z,21.47
2018-04-08T16:11:01.922Z,22.37
2018-04-08T16:14:05.314Z,22.37
2018-04-08T16:17:08.662Z,22.60
2018-04-08T16:20:12.897Z,22.27
2018-04-08T16:23:17.080Z,21.87
2018-04-08T16:26:20.512Z,21.63
2018-04-08T16:29:23.872Z,22.30
2018-04-08T16:32:27.268Z,23.47
2018-04-08T16:35:30.618Z,22.57
2018-04-08T16:38:34.802Z,23.77
2018-04-08T16:41:38.164Z,22.87
2018-04-08T16:44:41.666Z,22.07
2018-04-08T16:47:45.121Z,21.63
2018-04-08T16:50:48.648Z,22.03
2018-04-08T16:53:52.808Z,20.30
2018-04-08T16:56:56.185Z,21.37
2018-04-08T16:59:59.662Z,21.23
2018-04-08T17:03:03.807Z,22.27
2018-04-08T17:06:07.179Z,22.23
2018-04-08T17:09:11.313Z,23.53
2018-04-08T17:12:14.737Z,22.37
2018-04-08T17:15:18.643Z,23.10
2018-04-08T17:18:22.078Z,23.23
2018-04-08T17:21:25.479Z,23.60
2018-04-08T17:24:28.851Z,22.37
2018-04-08T17:27:32.244Z,22.53
2018-04-08T17:30:35.639Z,22.07
2018-04-08T17:33:39.014Z,21.50
2018-04-08T17:36:43.175Z,22.50
2018-04-08T17:39:46.571Z,21.87
2018-04-08T17:42:50.911Z,21.97
2018-04-08T17:45:54.353Z,21.33
2018-04-08T17:48:58.545Z,20.83
2018-04-08T17:52:01.931Z,22.10
2018-04-08T17:55:05.314Z,20.77
2018-04-08T17:58:08.766Z,21.23
2018-04-08T18:01:12.135Z,20.37
2018-04-08T18:04:15.583Z,21.47
2018-04-08T18:07:19.711Z,21.57
2018-04-08T18:10:24.017Z,20.23
2018-04-08T18:13:27.412Z,21.67
2018-04-08T18:16:30.792Z,21.13
2018-04-08T18:19:34.207Z,21.50
2018-04-08T18:22:37.587Z,20.67
2018-04-08T18:25:40.970Z,21.20
2018-04-08T18:28:44.348Z,21.40
2018-04-08T18:31:47.726Z,21.00
2018-04-08T18:34:51.878Z,20.57
2018-04-08T18:37:55.267Z,21.50
2018-04-08T18:40:58.675Z,20.80
2018-04-08T18:44:02.084Z,20.93
2018-04-08T18:47:05.474Z,21.10
2018-04-08T18:50:08.849Z,20.83
2018-04-08T18:53:13.046Z,20.53
2018-04-08T18:56:16.468Z,20.50
2018-04-08T18:59:20.628Z,22.37
2018-04-08T19:02:24.058Z,22.13
2018-04-08T19:05:27.611Z,23.43
2018-04-08T19:08:31.031Z,26.60
2018-04-08T19:11:34.472Z,21.03
2018-04-08T19:14:43.302Z,21.07
2018-04-08T19:17:52.975Z,21.97
2018-04-08T19:20:56.343Z,21.57
2018-04-08T19:23:59.752Z,20.70
2018-04-08T19:27:03.890Z,20.77
2018-04-08T19:30:12.896Z,21.77
2018-04-08T19:33:17.151Z,21.40
2018-04-08T19:36:20.538Z,21.50
2018-04-08T19:39:23.922Z,23.50
2018-04-08T19:42:28.064Z,22.50
2018-04-08T19:45:31.434Z,21.90
2018-04-08T19:48:35.768Z,22.93
2018-04-08T19:51:39.992Z,22.00
2018-04-08T19:54:43.384Z,22.07
2018-04-08T19:57:47.546Z,21.73
2018-04-08T20:00:51.011Z,24.13
2018-04-08T20:03:54.544Z,27.23
2018-04-08T20:06:58.716Z,25.27
2018-04-08T20:10:02.147Z,26.77
2018-04-08T20:13:06.336Z,25.23
2018-04-08T20:16:09.777Z,25.83
2018-04-08T20:19:14.126Z,25.30
2018-04-08T20:22:17.521Z,25.50
2018-04-08T20:25:20.997Z,24.87
2018-04-08T20:28:25.127Z,27.33
2018-04-08T20:31:29.353Z,27.23
2018-04-08T20:34:32.808Z,25.07
2018-04-08T20:37:36.333Z,25.23
2018-04-08T20:40:40.498Z,25.73
2018-04-08T20:43:43.867Z,28.00
2018-04-08T20:46:47.382Z,26.73
2018-04-08T20:49:50.732Z,30.67
2018-04-08T20:52:54.119Z,29.60
2018-04-08T20:55:57.516Z,28.40
2018-04-08T20:59:00.897Z,26.23
2018-04-08T21:02:04.276Z,26.87
2018-04-08T21:05:07.707Z,29.30
2018-04-08T21:08:11.082Z,27.73
2018-04-08T21:11:14.467Z,26.83
2018-04-08T21:14:18.624Z,27.60
2018-04-08T21:17:22.003Z,25.90
2018-04-08T21:20:25.416Z,27.40
2018-04-08T21:23:28.794Z,31.10
2018-04-08T21:26:32.200Z,28.50
2018-04-08T21:29:35.595Z,28.07
2018-04-08T21:32:38.989Z,27.77
2018-04-08T21:35:42.349Z,27.53
2018-04-08T21:38:45.713Z,30.00
2018-04-08T21:41:49.077Z,28.93
2018-04-08T21:44:53.213Z,29.17
2018-04-08T21:47:56.582Z,28.27
2018-04-08T21:51:00.716Z,30.53
2018-04-08T21:54:04.093Z,28.20
2018-04-08T21:57:07.515Z,27.80
2018-04-08T22:00:11.914Z,28.63
2018-04-08T22:03:16.057Z,41.03
2018-04-08T22:06:19.413Z,33.10
2018-04-08T22:09:22.786Z,29.80
2018-04-08T22:12:26.177Z,30.20
2018-04-08T22:15:29.654Z,30.37
2018-04-08T22:18:33.210Z,33.67
2018-04-08T22:21:36.589Z,31.57
2018-04-08T22:24:39.964Z,32.00
2018-04-08T22:27:43.360Z,30.43
2018-04-08T22:30:46.743Z,30.53
2018-04-08T22:33:50.884Z,31.73
2018-04-08T22:36:54.258Z,35.50
2018-04-08T22:39:58.376Z,33.97
2018-04-08T22:43:02.521Z,35.87
2018-04-08T22:46:05.984Z,34.13
2018-04-08T22:49:09.359Z,34.70
2018-04-08T22:52:12.717Z,31.37
2018-04-08T22:55:16.082Z,33.43
2018-04-08T22:58:19.467Z,34.07
2018-04-08T23:01:22.819Z,34.70
2018-04-08T23:04:26.191Z,34.40
2018-04-08T23:07:30.374Z,35.80
2018-04-08T23:10:33.766Z,34.50
2018-04-08T23:13:37.141Z,35.33
2018-04-08T23:16:40.514Z,33.77
2018-04-08T23:19:44.675Z,35.87
2018-04-08T23:22:48.228Z,35.07
2018-04-08T23:25:52.567Z,33.70
2018-04-08T23:28:55.942Z,36.23
2018-04-08T23:31:59.319Z,34.43
2018-04-08T23:35:02.697Z,34.13
2018-04-08T23:38:06.086Z,34.83
2018-04-08T23:41:09.497Z,35.33
2018-04-08T23:44:12.866Z,34.80
2018-04-08T23:47:16.248Z,35.17
2018-04-08T23:50:20.401Z,35.17
2018-04-08T23:53:23.795Z,36.23
2018-04-08T23:56:27.153Z,36.30
2018-04-08T23:59:30.529Z,34.60
